sensor_id;sensor_type;location;lat;lon;timestamp;pressure;altitude;pressure_sealevel;temperature;humidity
42411;BME280;28056;51.112;0.984;2023-02-15T00:01:56;101811.32;;;10.25;49.14
42411;BME280;28056;51.112;0.984;2023-02-15T00:04:25;101810.19;;;10.13;51.91
42411;BME280;28056;51.112;0.984;2023-02-15T00:06:53;101806.22;;;10.27;48.76
42411;BME280;28056;51.112;0.984;2023-02-15T00:09:20;101804.05;;;10.43;51.55
42411;BME280;28056;51.112;0.984;2023-02-15T00:11:47;101800.04;;;10.43;52.16
42411;BME280;28056;51.112;0.984;2023-02-15T00:14:18;101794.99;;;10.52;51.41
42411;BME280;28056;51.112;0.984;2023-02-15T00:16:47;101789.03;;;10.35;51.67
42411;BME280;28056;51.112;0.984;2023-02-15T00:19:16;101785.36;;;10.19;51.14
42411;BME280;28056;51.112;0.984;2023-02-15T00:21:44;101786.19;;;10.30;51.91
42411;BME280;28056;51.112;0.984;2023-02-15T00:24:14;101781.74;;;9.97;51.64
42411;BME280;28056;51.112;0.984;2023-02-15T00:26:42;101782.14;;;10.05;52.44
42411;BME280;28056;51.112;0.984;2023-02-15T00:29:12;101778.77;;;10.08;50.37
42411;BME280;28056;51.112;0.984;2023-02-15T00:31:39;101776.86;;;10.00;50.68
42411;BME280;28056;51.112;0.984;2023-02-15T00:34:10;101778.66;;;9.86;53.48
42411;BME280;28056;51.112;0.984;2023-02-15T00:36:38;101780.14;;;10.48;52.43
42411;BME280;28056;51.112;0.984;2023-02-15T00:39:06;101779.64;;;9.96;53.24
42411;BME280;28056;51.112;0.984;2023-02-15T00:41:33;101777.32;;;10.06;52.83
42411;BME280;28056;51.112;0.984;2023-02-15T00:44:01;101771.79;;;9.95;52.71
42411;BME280;28056;51.112;0.984;2023-02-15T00:46:29;101772.61;;;9.68;53.27
42411;BME280;28056;51.112;0.984;2023-02-15T00:48:56;101770.05;;;9.70;51.96
42411;BME280;28056;51.112;0.984;2023-02-15T00:51:24;101770.72;;;10.13;51.76
42411;BME280;28056;51.112;0.984;2023-02-15T00:53:52;101770.22;;;10.16;52.90
42411;BME280;28056;51.112;0.984;2023-02-15T00:56:20;101764.52;;;10.14;53.04
42411;BME280;28056;51.112;0.984;2023-02-15T00:58:47;101758.56;;;10.22;53.47
42411;BME280;28056;51.112;0.984;2023-02-15T01:04:53;101756.66;;;10.27;51.68
42411;BME280;28056;51.112;0.984;2023-02-15T01:07:20;101755.06;;;10.37;53.92
42411;BME280;28056;51.112;0.984;2023-02-15T01:09:47;101750.33;;;10.19;53.16
42411;BME280;28056;51.112;0.984;2023-02-15T01:12:14;101747.11;;;10.16;53.25
42411;BME280;28056;51.112;0.984;2023-02-15T01:14:41;101745.68;;;10.19;52.84
42411;BME280;28056;51.112;0.984;2023-02-15T01:17:09;101746.74;;;10.31;54.33
42411;BME280;28056;51.112;0.984;2023-02-15T01:19:36;101742.84;;;10.46;54.15
42411;BME280;28056;51.112;0.984;2023-02-15T01:22:03;101743.13;;;10.54;53.29
42411;BME280;28056;51.112;0.984;2023-02-15T01:24:32;101737.42;;;10.24;53.02
42411;BME280;28056;51.112;0.984;2023-02-15T01:26:59;101740.01;;;10.35;53.52
42411;BME280;28056;51.112;0.984;2023-02-15T01:29:26;101736.92;;;10.45;52.68
42411;BME280;28056;51.112;0.984;2023-02-15T01:31:53;101740.11;;;10.32;54.31
42411;BME280;28056;51.112;0.984;2023-02-15T01:34:20;101739.22;;;10.28;54.52
42411;BME280;28056;51.112;0.984;2023-02-15T01:36:48;101735.78;;;10.37;52.81
42411;BME280;28056;51.112;0.984;2023-02-15T01:39:15;101733.30;;;10.34;55.43
42411;BME280;28056;51.112;0.984;2023-02-15T01:41:42;101727.54;;;10.43;51.05
42411;BME280;28056;51.112;0.984;2023-02-15T01:46:24;101731.21;;;10.97;53.56
42411;BME280;28056;51.112;0.984;2023-02-15T01:48:57;101724.53;;;10.53;54.38
42411;BME280;28056;51.112;0.984;2023-02-15T01:51:30;101720.78;;;10.53;51.08
42411;BME280;28056;51.112;0.984;2023-02-15T01:54:01;101722.53;;;10.16;54.15
42411;BME280;28056;51.112;0.984;2023-02-15T01:56:32;101725.33;;;10.39;52.45
42411;BME280;28056;51.112;0.984;2023-02-15T01:59:04;101722.62;;;10.04;52.76
42411;BME280;28056;51.112;0.984;2023-02-15T02:01:34;101722.07;;;9.98;52.19
42411;BME280;28056;51.112;0.984;2023-02-15T02:04:07;101727.96;;;9.71;52.17
42411;BME280;28056;51.112;0.984;2023-02-15T02:06:37;101718.09;;;9.75;52.04
42411;BME280;28056;51.112;0.984;2023-02-15T02:09:06;101716.61;;;10.04;51.72
42411;BME280;28056;51.112;0.984;2023-02-15T02:11:34;101710.76;;;9.96;51.55
42411;BME280;28056;51.112;0.984;2023-02-15T02:14:02;101707.29;;;9.84;51.31
42411;BME280;28056;51.112;0.984;2023-02-15T02:16:38;101708.87;;;9.80;51.87
42411;BME280;28056;51.112;0.984;2023-02-15T02:20:24;101704.75;;;9.80;51.44
42411;BME280;28056;51.112;0.984;2023-02-15T02:23:28;101696.20;;;9.85;52.91
42411;BME280;28056;51.112;0.984;2023-02-15T02:27:22;101684.42;;;10.37;50.98
42411;BME280;28056;51.112;0.984;2023-02-15T02:30:08;101677.82;;;9.88;51.81
42411;BME280;28056;51.112;0.984;2023-02-15T02:33:54;101670.87;;;10.40;52.12
42411;BME280;28056;51.112;0.984;2023-02-15T02:36:31;101664.10;;;9.88;52.17
42411;BME280;28056;51.112;0.984;2023-02-15T02:39:12;101662.61;;;9.79;52.11
42411;BME280;28056;51.112;0.984;2023-02-15T02:41:51;101660.09;;;9.73;52.53
42411;BME280;28056;51.112;0.984;2023-02-15T02:44:26;101657.06;;;9.86;51.74
42411;BME280;28056;51.112;0.984;2023-02-15T02:47:01;101653.62;;;9.89;52.13
42411;BME280;28056;51.112;0.984;2023-02-15T02:49:33;101652.42;;;9.52;52.45
42411;BME280;28056;51.112;0.984;2023-02-15T02:52:01;101649.46;;;9.73;52.66
42411;BME280;28056;51.112;0.984;2023-02-15T02:54:31;101648.58;;;9.64;52.73
42411;BME280;28056;51.112;0.984;2023-02-15T02:57:04;101650.19;;;9.89;52.44
42411;BME280;28056;51.112;0.984;2023-02-15T03:00:07;101642.70;;;10.04;52.46
42411;BME280;28056;51.112;0.984;2023-02-15T03:02:39;101637.05;;;9.56;52.53
42411;BME280;28056;51.112;0.984;2023-02-15T03:05:14;101632.29;;;9.96;52.19
42411;BME280;28056;51.112;0.984;2023-02-15T03:07:46;101630.88;;;9.64;51.96
42411;BME280;28056;51.112;0.984;2023-02-15T03:10:17;101624.72;;;9.71;52.37
42411;BME280;28056;51.112;0.984;2023-02-15T03:12:45;101626.19;;;9.57;53.07
42411;BME280;28056;51.112;0.984;2023-02-15T03:15:17;101623.67;;;9.47;52.66
42411;BME280;28056;51.112;0.984;2023-02-15T03:17:49;101618.56;;;9.84;52.90
42411;BME280;28056;51.112;0.984;2023-02-15T03:20:24;101614.04;;;9.71;53.04
42411;BME280;28056;51.112;0.984;2023-02-15T03:22:55;101611.81;;;9.65;53.85
42411;BME280;28056;51.112;0.984;2023-02-15T03:25:27;101609.35;;;9.67;54.26
42411;BME280;28056;51.112;0.984;2023-02-15T03:28:00;101607.05;;;9.38;53.57
42411;BME280;28056;51.112;0.984;2023-02-15T03:30:30;101605.54;;;9.73;53.23
42411;BME280;28056;51.112;0.984;2023-02-15T03:33:00;101600.85;;;9.75;54.00
42411;BME280;28056;51.112;0.984;2023-02-15T03:35:33;101598.35;;;9.87;52.93
42411;BME280;28056;51.112;0.984;2023-02-15T03:38:06;101597.16;;;9.89;53.22
42411;BME280;28056;51.112;0.984;2023-02-15T03:40:37;101592.75;;;9.60;54.25
42411;BME280;28056;51.112;0.984;2023-02-15T03:43:12;101590.48;;;10.00;54.77
42411;BME280;28056;51.112;0.984;2023-02-15T03:45:45;101591.88;;;10.03;54.32
42411;BME280;28056;51.112;0.984;2023-02-15T03:48:14;101591.54;;;10.13;54.58
42411;BME280;28056;51.112;0.984;2023-02-15T03:50:42;101589.28;;;10.17;54.20
42411;BME280;28056;51.112;0.984;2023-02-15T03:53:13;101589.40;;;10.11;54.27
42411;BME280;28056;51.112;0.984;2023-02-15T03:55:41;101585.57;;;9.84;53.96
42411;BME280;28056;51.112;0.984;2023-02-15T03:58:09;101585.28;;;10.07;53.94
42411;BME280;28056;51.112;0.984;2023-02-15T04:00:40;101584.94;;;10.02;53.60
42411;BME280;28056;51.112;0.984;2023-02-15T04:03:23;101582.15;;;9.97;53.79
42411;BME280;28056;51.112;0.984;2023-02-15T04:05:55;101581.64;;;9.67;53.99
42411;BME280;28056;51.112;0.984;2023-02-15T04:08:23;101579.19;;;9.80;54.51
42411;BME280;28056;51.112;0.984;2023-02-15T04:10:50;101577.57;;;9.69;54.87
42411;BME280;28056;51.112;0.984;2023-02-15T04:13:18;101578.68;;;9.96;54.86
42411;BME280;28056;51.112;0.984;2023-02-15T04:15:45;101582.86;;;9.71;55.26
42411;BME280;28056;51.112;0.984;2023-02-15T04:18:13;101587.92;;;9.63;55.54
42411;BME280;28056;51.112;0.984;2023-02-15T04:20:43;101592.25;;;9.56;55.89
42411;BME280;28056;51.112;0.984;2023-02-15T04:23:11;101593.02;;;9.83;55.63
42411;BME280;28056;51.112;0.984;2023-02-15T04:25:38;101590.85;;;9.78;56.56
42411;BME280;28056;51.112;0.984;2023-02-15T04:28:06;101593.75;;;9.71;55.71
42411;BME280;28056;51.112;0.984;2023-02-15T04:30:34;101593.32;;;9.67;57.28
42411;BME280;28056;51.112;0.984;2023-02-15T04:33:01;101594.37;;;9.77;56.30
42411;BME280;28056;51.112;0.984;2023-02-15T04:35:28;101591.27;;;9.97;56.16
42411;BME280;28056;51.112;0.984;2023-02-15T04:37:55;101588.69;;;9.64;56.62
42411;BME280;28056;51.112;0.984;2023-02-15T04:40:22;101585.83;;;9.82;56.86
42411;BME280;28056;51.112;0.984;2023-02-15T04:42:50;101582.51;;;9.55;57.49
42411;BME280;28056;51.112;0.984;2023-02-15T04:45:18;101578.22;;;9.66;57.77
42411;BME280;28056;51.112;0.984;2023-02-15T04:47:45;101576.75;;;9.51;57.79
42411;BME280;28056;51.112;0.984;2023-02-15T04:50:12;101572.89;;;9.76;57.42
42411;BME280;28056;51.112;0.984;2023-02-15T04:52:40;101571.77;;;9.78;57.64
42411;BME280;28056;51.112;0.984;2023-02-15T04:55:07;101573.79;;;9.61;57.47
42411;BME280;28056;51.112;0.984;2023-02-15T04:57:34;101569.09;;;9.97;57.92
42411;BME280;28056;51.112;0.984;2023-02-15T05:00:02;101568.66;;;10.14;56.87
42411;BME280;28056;51.112;0.984;2023-02-15T05:02:29;101569.05;;;9.78;58.28
42411;BME280;28056;51.112;0.984;2023-02-15T05:04:57;101565.42;;;9.63;58.01
42411;BME280;28056;51.112;0.984;2023-02-15T05:07:24;101561.71;;;10.23;57.35
42411;BME280;28056;51.112;0.984;2023-02-15T05:09:52;101566.51;;;9.90;57.21
42411;BME280;28056;51.112;0.984;2023-02-15T05:12:19;101563.97;;;9.97;57.57
42411;BME280;28056;51.112;0.984;2023-02-15T05:14:46;101560.95;;;9.96;58.84
42411;BME280;28056;51.112;0.984;2023-02-15T05:17:14;101557.39;;;10.01;57.90
42411;BME280;28056;51.112;0.984;2023-02-15T05:19:41;101559.90;;;10.03;57.50
42411;BME280;28056;51.112;0.984;2023-02-15T05:22:09;101553.14;;;10.62;57.41
42411;BME280;28056;51.112;0.984;2023-02-15T05:24:36;101555.56;;;10.14;58.05
42411;BME280;28056;51.112;0.984;2023-02-15T05:27:03;101556.81;;;10.56;55.95
42411;BME280;28056;51.112;0.984;2023-02-15T05:29:31;101553.28;;;10.33;57.71
42411;BME280;28056;51.112;0.984;2023-02-15T05:31:58;101550.71;;;10.31;56.89
42411;BME280;28056;51.112;0.984;2023-02-15T05:34:25;101548.09;;;10.36;55.99
42411;BME280;28056;51.112;0.984;2023-02-15T05:36:53;101543.66;;;10.50;57.99
42411;BME280;28056;51.112;0.984;2023-02-15T05:39:20;101542.41;;;10.52;58.07
42411;BME280;28056;51.112;0.984;2023-02-15T05:41:47;101541.28;;;10.61;56.44
42411;BME280;28056;51.112;0.984;2023-02-15T05:44:14;101541.51;;;10.39;56.53
42411;BME280;28056;51.112;0.984;2023-02-15T05:46:42;101539.57;;;10.63;58.77
42411;BME280;28056;51.112;0.984;2023-02-15T05:49:10;101539.69;;;10.68;57.14
42411;BME280;28056;51.112;0.984;2023-02-15T05:51:37;101539.05;;;10.63;57.92
42411;BME280;28056;51.112;0.984;2023-02-15T05:54:05;101538.32;;;10.37;58.08
42411;BME280;28056;51.112;0.984;2023-02-15T05:56:32;101536.72;;;10.62;57.28
42411;BME280;28056;51.112;0.984;2023-02-15T05:59:00;101542.23;;;10.54;56.13
42411;BME280;28056;51.112;0.984;2023-02-15T06:01:27;101537.58;;;10.63;56.48
42411;BME280;28056;51.112;0.984;2023-02-15T06:03:55;101543.77;;;10.60;56.81
42411;BME280;28056;51.112;0.984;2023-02-15T06:06:22;101541.51;;;10.59;55.84
42411;BME280;28056;51.112;0.984;2023-02-15T06:08:50;101541.81;;;10.40;55.94
42411;BME280;28056;51.112;0.984;2023-02-15T06:11:17;101543.32;;;10.41;56.40
42411;BME280;28056;51.112;0.984;2023-02-15T06:13:44;101540.37;;;10.32;56.33
42411;BME280;28056;51.112;0.984;2023-02-15T06:16:11;101539.79;;;10.30;55.83
42411;BME280;28056;51.112;0.984;2023-02-15T06:18:38;101533.45;;;10.24;56.56
42411;BME280;28056;51.112;0.984;2023-02-15T06:21:05;101539.04;;;10.28;56.40
42411;BME280;28056;51.112;0.984;2023-02-15T06:23:32;101540.51;;;10.08;55.55
42411;BME280;28056;51.112;0.984;2023-02-15T06:25:59;101537.60;;;10.37;55.49
42411;BME280;28056;51.112;0.984;2023-02-15T06:28:27;101539.39;;;10.40;57.81
42411;BME280;28056;51.112;0.984;2023-02-15T06:30:53;101533.36;;;10.50;55.69
42411;BME280;28056;51.112;0.984;2023-02-15T06:33:21;101537.02;;;10.23;54.63
42411;BME280;28056;51.112;0.984;2023-02-15T06:35:48;101540.36;;;10.53;55.50
42411;BME280;28056;51.112;0.984;2023-02-15T06:38:15;101538.81;;;10.50;55.37
42411;BME280;28056;51.112;0.984;2023-02-15T06:40:42;101540.66;;;10.38;55.45
42411;BME280;28056;51.112;0.984;2023-02-15T06:43:10;101544.15;;;10.32;55.63
42411;BME280;28056;51.112;0.984;2023-02-15T06:45:37;101544.73;;;10.01;56.26
42411;BME280;28056;51.112;0.984;2023-02-15T06:48:04;101546.69;;;10.37;57.38
42411;BME280;28056;51.112;0.984;2023-02-15T06:50:32;101547.59;;;9.62;55.62
42411;BME280;28056;51.112;0.984;2023-02-15T06:52:59;101545.78;;;8.52;57.59
42411;BME280;28056;51.112;0.984;2023-02-15T06:55:26;101548.91;;;8.21;58.23
42411;BME280;28056;51.112;0.984;2023-02-15T06:57:54;101549.73;;;7.53;60.81
42411;BME280;28056;51.112;0.984;2023-02-15T07:00:22;101551.94;;;7.37;61.54
42411;BME280;28056;51.112;0.984;2023-02-15T07:02:53;101550.72;;;7.69;61.21
42411;BME280;28056;51.112;0.984;2023-02-15T07:05:21;101546.62;;;7.56;61.60
42411;BME280;28056;51.112;0.984;2023-02-15T07:07:48;101548.08;;;7.02;63.69
42411;BME280;28056;51.112;0.984;2023-02-15T07:10:16;101550.83;;;7.19;63.88
42411;BME280;28056;51.112;0.984;2023-02-15T07:12:43;101547.74;;;6.84;63.95
42411;BME280;28056;51.112;0.984;2023-02-15T07:15:13;101548.31;;;6.73;65.66
42411;BME280;28056;51.112;0.984;2023-02-15T07:17:42;101552.40;;;7.15;65.45
42411;BME280;28056;51.112;0.984;2023-02-15T07:20:12;101551.54;;;7.19;64.41
42411;BME280;28056;51.112;0.984;2023-02-15T07:22:39;101556.71;;;6.86;65.16
42411;BME280;28056;51.112;0.984;2023-02-15T07:25:09;101560.66;;;7.21;64.40
42411;BME280;28056;51.112;0.984;2023-02-15T07:27:37;101560.91;;;7.48;63.26
42411;BME280;28056;51.112;0.984;2023-02-15T07:30:06;101559.36;;;7.49;62.21
42411;BME280;28056;51.112;0.984;2023-02-15T07:32:34;101559.43;;;7.53;62.55
42411;BME280;28056;51.112;0.984;2023-02-15T07:35:01;101557.46;;;7.47;63.61
42411;BME280;28056;51.112;0.984;2023-02-15T07:37:29;101557.46;;;7.09;63.64
42411;BME280;28056;51.112;0.984;2023-02-15T07:39:56;101565.21;;;6.89;65.37
42411;BME280;28056;51.112;0.984;2023-02-15T07:42:24;101559.54;;;7.14;63.56
42411;BME280;28056;51.112;0.984;2023-02-15T07:44:51;101557.89;;;7.51;63.32
42411;BME280;28056;51.112;0.984;2023-02-15T07:47:19;101557.97;;;7.99;61.51
42411;BME280;28056;51.112;0.984;2023-02-15T07:49:46;101561.81;;;7.36;62.99
42411;BME280;28056;51.112;0.984;2023-02-15T07:52:13;101562.78;;;7.19;64.41
42411;BME280;28056;51.112;0.984;2023-02-15T07:54:41;101563.33;;;7.62;63.08
42411;BME280;28056;51.112;0.984;2023-02-15T07:57:09;101569.85;;;7.76;62.45
42411;BME280;28056;51.112;0.984;2023-02-15T07:59:36;101571.42;;;7.82;61.92
42411;BME280;28056;51.112;0.984;2023-02-15T08:02:05;101577.27;;;8.05;62.01
42411;BME280;28056;51.112;0.984;2023-02-15T08:04:35;101573.70;;;8.39;61.26
42411;BME280;28056;51.112;0.984;2023-02-15T08:07:02;101586.11;;;7.87;62.23
42411;BME280;28056;51.112;0.984;2023-02-15T08:09:30;101578.85;;;8.05;61.24
42411;BME280;28056;51.112;0.984;2023-02-15T08:11:57;101578.25;;;8.36;61.53
42411;BME280;28056;51.112;0.984;2023-02-15T08:14:26;101576.93;;;8.39;61.28
42411;BME280;28056;51.112;0.984;2023-02-15T08:16:58;101578.92;;;8.34;61.80
42411;BME280;28056;51.112;0.984;2023-02-15T08:19:27;101585.76;;;8.01;63.39
42411;BME280;28056;51.112;0.984;2023-02-15T08:21:57;101584.93;;;7.73;63.75
42411;BME280;28056;51.112;0.984;2023-02-15T08:24:27;101584.56;;;7.81;62.94
42411;BME280;28056;51.112;0.984;2023-02-15T08:26:56;101583.95;;;7.49;63.33
42411;BME280;28056;51.112;0.984;2023-02-15T08:29:26;101583.00;;;8.07;63.23
42411;BME280;28056;51.112;0.984;2023-02-15T08:31:56;101578.18;;;8.10;62.78
42411;BME280;28056;51.112;0.984;2023-02-15T08:34:24;101584.71;;;7.50;64.16
42411;BME280;28056;51.112;0.984;2023-02-15T08:36:51;101579.69;;;7.93;63.38
42411;BME280;28056;51.112;0.984;2023-02-15T08:39:19;101568.68;;;7.53;64.18
42411;BME280;28056;51.112;0.984;2023-02-15T08:41:47;101565.35;;;7.36;65.35
42411;BME280;28056;51.112;0.984;2023-02-15T08:44:16;101560.50;;;7.41;66.28
42411;BME280;28056;51.112;0.984;2023-02-15T08:46:45;101561.89;;;7.19;67.51
42411;BME280;28056;51.112;0.984;2023-02-15T08:49:16;101563.83;;;7.86;66.09
42411;BME280;28056;51.112;0.984;2023-02-15T08:51:43;101563.08;;;7.70;66.58
42411;BME280;28056;51.112;0.984;2023-02-15T08:54:14;101562.53;;;7.82;67.01
42411;BME280;28056;51.112;0.984;2023-02-15T08:56:43;101565.85;;;7.58;67.26
42411;BME280;28056;51.112;0.984;2023-02-15T08:59:13;101567.97;;;7.94;66.87
42411;BME280;28056;51.112;0.984;2023-02-15T09:01:42;101565.49;;;8.00;66.30
42411;BME280;28056;51.112;0.984;2023-02-15T09:04:09;101562.79;;;8.31;65.33
42411;BME280;28056;51.112;0.984;2023-02-15T09:06:38;101565.10;;;8.82;64.64
42411;BME280;28056;51.112;0.984;2023-02-15T09:09:07;101571.65;;;8.89;64.26
42411;BME280;28056;51.112;0.984;2023-02-15T09:11:36;101571.82;;;8.39;64.62
42411;BME280;28056;51.112;0.984;2023-02-15T09:14:05;101571.90;;;8.61;64.51
42411;BME280;28056;51.112;0.984;2023-02-15T09:16:35;101571.94;;;7.92;66.40
42411;BME280;28056;51.112;0.984;2023-02-15T09:19:04;101571.27;;;8.36;65.93
42411;BME280;28056;51.112;0.984;2023-02-15T09:21:33;101573.18;;;8.13;66.36
42411;BME280;28056;51.112;0.984;2023-02-15T09:24:03;101571.76;;;8.50;65.39
42411;BME280;28056;51.112;0.984;2023-02-15T09:26:33;101567.24;;;8.03;66.50
42411;BME280;28056;51.112;0.984;2023-02-15T09:29:01;101567.04;;;8.59;65.70
42411;BME280;28056;51.112;0.984;2023-02-15T09:31:31;101568.10;;;8.29;65.96
42411;BME280;28056;51.112;0.984;2023-02-15T09:33:59;101569.21;;;8.65;65.40
42411;BME280;28056;51.112;0.984;2023-02-15T09:36:30;101570.90;;;9.20;64.68
42411;BME280;28056;51.112;0.984;2023-02-15T09:38:59;101565.66;;;8.83;65.05
42411;BME280;28056;51.112;0.984;2023-02-15T09:42:44;101564.62;;;8.92;64.60
42411;BME280;28056;51.112;0.984;2023-02-15T09:45:26;101566.35;;;9.83;63.34
42411;BME280;28056;51.112;0.984;2023-02-15T09:48:13;101567.57;;;9.60;62.64
42411;BME280;28056;51.112;0.984;2023-02-15T09:50:52;101569.71;;;9.14;64.32
42411;BME280;28056;51.112;0.984;2023-02-15T09:53:33;101574.07;;;9.72;62.92
42411;BME280;28056;51.112;0.984;2023-02-15T09:56:12;101573.87;;;9.48;62.89
42411;BME280;28056;51.112;0.984;2023-02-15T09:58:49;101574.10;;;9.28;63.64
42411;BME280;28056;51.112;0.984;2023-02-15T10:01:25;101574.31;;;9.40;61.62
42411;BME280;28056;51.112;0.984;2023-02-15T10:04:16;101578.27;;;10.25;61.25
42411;BME280;28056;51.112;0.984;2023-02-15T10:06:53;101579.55;;;10.01;61.31
42411;BME280;28056;51.112;0.984;2023-02-15T10:09:36;101578.85;;;10.67;59.84
42411;BME280;28056;51.112;0.984;2023-02-15T10:14:35;101583.60;;;11.52;58.97
42411;BME280;28056;51.112;0.984;2023-02-15T10:17:17;101583.75;;;11.44;59.53
42411;BME280;28056;51.112;0.984;2023-02-15T10:19:54;101585.82;;;11.12;56.43
42411;BME280;28056;51.112;0.984;2023-02-15T10:22:29;101582.56;;;11.56;57.87
42411;BME280;28056;51.112;0.984;2023-02-15T10:25:09;101579.67;;;11.29;56.42
42411;BME280;28056;51.112;0.984;2023-02-15T10:27:45;101585.83;;;10.86;56.87
42411;BME280;28056;51.112;0.984;2023-02-15T10:30:14;101587.29;;;10.62;58.03
42411;BME280;28056;51.112;0.984;2023-02-15T10:32:48;101587.92;;;10.84;57.41
42411;BME280;28056;51.112;0.984;2023-02-15T10:35:23;101583.42;;;10.67;59.37
42411;BME280;28056;51.112;0.984;2023-02-15T10:38:02;101579.19;;;11.17;56.33
42411;BME280;28056;51.112;0.984;2023-02-15T10:40:40;101575.62;;;10.99;57.64
42411;BME280;28056;51.112;0.984;2023-02-15T10:43:23;101577.21;;;12.53;55.98
42411;BME280;28056;51.112;0.984;2023-02-15T10:46:02;101576.88;;;11.38;53.69
42411;BME280;28056;51.112;0.984;2023-02-15T10:48:47;101571.15;;;11.80;53.05
42411;BME280;28056;51.112;0.984;2023-02-15T10:51:28;101571.77;;;11.77;54.67
42411;BME280;28056;51.112;0.984;2023-02-15T10:54:09;101565.20;;;12.05;53.45
42411;BME280;28056;51.112;0.984;2023-02-15T10:56:44;101557.07;;;12.55;52.26
42411;BME280;28056;51.112;0.984;2023-02-15T10:59:37;101554.37;;;11.31;52.89
42411;BME280;28056;51.112;0.984;2023-02-15T11:02:17;101560.51;;;12.37;53.44
42411;BME280;28056;51.112;0.984;2023-02-15T11:04:53;101554.45;;;11.23;54.03
42411;BME280;28056;51.112;0.984;2023-02-15T11:07:25;101550.30;;;11.60;52.33
42411;BME280;28056;51.112;0.984;2023-02-15T11:10:00;101550.04;;;11.90;51.28
42411;BME280;28056;51.112;0.984;2023-02-15T11:12:29;101547.61;;;11.75;51.97
42411;BME280;28056;51.112;0.984;2023-02-15T11:15:02;101543.33;;;11.20;53.55
42411;BME280;28056;51.112;0.984;2023-02-15T11:17:36;101536.18;;;11.51;52.27
42411;BME280;28056;51.112;0.984;2023-02-15T11:20:16;101536.48;;;11.83;51.85
42411;BME280;28056;51.112;0.984;2023-02-15T11:22:47;101536.02;;;11.92;51.42
42411;BME280;28056;51.112;0.984;2023-02-15T11:25:18;101531.56;;;10.77;52.05
42411;BME280;28056;51.112;0.984;2023-02-15T11:27:48;101529.47;;;11.72;51.37
42411;BME280;28056;51.112;0.984;2023-02-15T11:30:20;101523.14;;;12.28;50.05
42411;BME280;28056;51.112;0.984;2023-02-15T11:32:50;101520.96;;;12.43;49.86
42411;BME280;28056;51.112;0.984;2023-02-15T11:35:24;101521.10;;;12.78;49.00
42411;BME280;28056;51.112;0.984;2023-02-15T11:37:57;101518.34;;;12.38;50.16
42411;BME280;28056;51.112;0.984;2023-02-15T11:40:29;101515.13;;;13.25;48.54
42411;BME280;28056;51.112;0.984;2023-02-15T11:42:59;101520.76;;;11.98;49.23
42411;BME280;28056;51.112;0.984;2023-02-15T11:45:29;101509.59;;;12.79;50.81
42411;BME280;28056;51.112;0.984;2023-02-15T11:47:58;101506.84;;;12.86;48.84
42411;BME280;28056;51.112;0.984;2023-02-15T11:50:27;101504.98;;;13.45;48.88
42411;BME280;28056;51.112;0.984;2023-02-15T11:52:59;101504.08;;;13.45;48.45
42411;BME280;28056;51.112;0.984;2023-02-15T11:55:28;101507.32;;;14.60;46.62
42411;BME280;28056;51.112;0.984;2023-02-15T11:58:00;101505.84;;;14.01;48.84
42411;BME280;28056;51.112;0.984;2023-02-15T12:00:34;101507.43;;;14.38;46.99
42411;BME280;28056;51.112;0.984;2023-02-15T12:03:11;101503.90;;;14.30;47.54
42411;BME280;28056;51.112;0.984;2023-02-15T12:05:44;101500.53;;;15.14;44.81
42411;BME280;28056;51.112;0.984;2023-02-15T12:08:17;101498.49;;;14.15;46.05
42411;BME280;28056;51.112;0.984;2023-02-15T12:10:57;101501.25;;;13.84;45.38
42411;BME280;28056;51.112;0.984;2023-02-15T12:13:25;101496.95;;;14.31;45.74
42411;BME280;28056;51.112;0.984;2023-02-15T12:15:54;101492.10;;;14.43;45.23
42411;BME280;28056;51.112;0.984;2023-02-15T12:18:34;101488.11;;;15.87;46.35
42411;BME280;28056;51.112;0.984;2023-02-15T12:21:07;101482.49;;;15.72;42.44
42411;BME280;28056;51.112;0.984;2023-02-15T12:23:41;101483.81;;;15.69;42.67
42411;BME280;28056;51.112;0.984;2023-02-15T12:26:11;101480.04;;;15.93;42.01
42411;BME280;28056;51.112;0.984;2023-02-15T12:28:42;101476.69;;;15.29;42.83
42411;BME280;28056;51.112;0.984;2023-02-15T12:31:20;101474.46;;;15.49;43.65
42411;BME280;28056;51.112;0.984;2023-02-15T12:33:52;101470.90;;;15.81;43.02
42411;BME280;28056;51.112;0.984;2023-02-15T12:36:22;101466.28;;;15.77;42.20
42411;BME280;28056;51.112;0.984;2023-02-15T12:39:18;101467.38;;;15.56;42.17
42411;BME280;28056;51.112;0.984;2023-02-15T12:41:56;101468.03;;;16.15;40.96
42411;BME280;28056;51.112;0.984;2023-02-15T12:44:27;101467.38;;;15.28;41.82
42411;BME280;28056;51.112;0.984;2023-02-15T12:46:57;101469.37;;;15.83;42.74
42411;BME280;28056;51.112;0.984;2023-02-15T12:49:25;101472.04;;;16.54;41.78
42411;BME280;28056;51.112;0.984;2023-02-15T12:51:54;101469.75;;;15.93;39.71
42411;BME280;28056;51.112;0.984;2023-02-15T12:54:30;101452.06;;;16.65;40.60
42411;BME280;28056;51.112;0.984;2023-02-15T12:56:58;101444.21;;;16.79;39.21
42411;BME280;28056;51.112;0.984;2023-02-15T12:59:26;101443.43;;;16.75;39.64
42411;BME280;28056;51.112;0.984;2023-02-15T13:01:54;101444.60;;;16.11;41.62
42411;BME280;28056;51.112;0.984;2023-02-15T13:04:25;101439.64;;;15.44;41.56
42411;BME280;28056;51.112;0.984;2023-02-15T13:06:56;101435.92;;;14.56;43.82
42411;BME280;28056;51.112;0.984;2023-02-15T13:09:34;101441.71;;;14.65;43.50
42411;BME280;28056;51.112;0.984;2023-02-15T13:12:14;101435.24;;;13.66;45.87
42411;BME280;28056;51.112;0.984;2023-02-15T13:14:44;101434.12;;;13.63;46.94
42411;BME280;28056;51.112;0.984;2023-02-15T13:17:14;101435.94;;;13.87;47.99
42411;BME280;28056;51.112;0.984;2023-02-15T13:19:45;101430.44;;;15.04;45.66
42411;BME280;28056;51.112;0.984;2023-02-15T13:22:16;101421.26;;;15.06;44.02
42411;BME280;28056;51.112;0.984;2023-02-15T13:24:48;101411.91;;;14.03;45.74
42411;BME280;28056;51.112;0.984;2023-02-15T13:27:20;101405.10;;;14.68;44.60